sensor_id;sensor_type;location;lat;lon;timestamp;P1;durP1;ratioP1;P2;durP2;ratioP2
20609;SDS011;10463;52.378;9.688;2023-09-30T00:00:09;4.97;;;3.00;;
20609;SDS011;10463;52.378;9.688;2023-09-30T00:02:57;3.50;;;2.30;;
20609;SDS011;10463;52.378;9.688;2023-09-30T00:05:41;4.20;;;2.33;;
20609;SDS011;10463;52.378;9.688;2023-09-30T00:08:26;6.10;;;2.97;;
20609;SDS011;10463;52.378;9.688;2023-09-30T00:11:15;3.60;;;2.70;;
20609;SDS011;10463;52.378;9.688;2023-09-30T00:14:01;4.20;;;2.20;;
20609;SDS011;10463;52.378;9.688;2023-09-30T00:16:45;4.40;;;2.53;;
20609;SDS011;10463;52.378;9.688;2023-09-30T00:19:30;5.93;;;3.00;;
20609;SDS011;10463;52.378;9.688;2023-09-30T00:22:17;4.20;;;2.43;;
20609;SDS011;10463;52.378;9.688;2023-09-30T00:25:02;4.10;;;2.37;;
20609;SDS011;10463;52.378;9.688;2023-09-30T00:27:48;4.67;;;2.57;;
20609;SDS011;10463;52.378;9.688;2023-09-30T00:30:32;4.70;;;2.50;;
20609;SDS011;10463;52.378;9.688;2023-09-30T00:33:17;5.10;;;2.67;;
20609;SDS011;10463;52.378;9.688;2023-09-30T00:36:06;3.40;;;1.90;;
20609;SDS011;10463;52.378;9.688;2023-09-30T00:38:51;5.87;;;2.93;;
20609;SDS011;10463;52.378;9.688;2023-09-30T00:41:38;4.57;;;2.73;;
20609;SDS011;10463;52.378;9.688;2023-09-30T00:44:24;6.20;;;2.80;;
20609;SDS011;10463;52.378;9.688;2023-09-30T00:47:09;4.20;;;2.90;;
20609;SDS011;10463;52.378;9.688;2023-09-30T00:49:54;5.60;;;2.30;;
20609;SDS011;10463;52.378;9.688;2023-09-30T00:52:39;4.77;;;2.60;;
20609;SDS011;10463;52.378;9.688;2023-09-30T00:55:24;7.13;;;2.80;;
20609;SDS011;10463;52.378;9.688;2023-09-30T00:58:09;4.60;;;2.60;;
20609;SDS011;10463;52.378;9.688;2023-09-30T01:00:56;4.47;;;3.10;;
20609;SDS011;10463;52.378;9.688;2023-09-30T01:03:41;6.10;;;2.90;;
20609;SDS011;10463;52.378;9.688;2023-09-30T01:06:25;3.83;;;2.67;;
20609;SDS011;10463;52.378;9.688;2023-09-30T01:09:11;5.30;;;2.83;;
20609;SDS011;10463;52.378;9.688;2023-09-30T01:11:57;4.37;;;2.87;;
20609;SDS011;10463;52.378;9.688;2023-09-30T01:14:41;4.80;;;2.57;;
20609;SDS011;10463;52.378;9.688;2023-09-30T01:17:28;4.63;;;2.70;;
20609;SDS011;10463;52.378;9.688;2023-09-30T01:20:14;3.97;;;2.60;;
20609;SDS011;10463;52.378;9.688;2023-09-30T01:23:02;5.83;;;2.80;;
20609;SDS011;10463;52.378;9.688;2023-09-30T01:25:48;6.10;;;2.90;;
20609;SDS011;10463;52.378;9.688;2023-09-30T01:28:33;4.57;;;2.57;;
20609;SDS011;10463;52.378;9.688;2023-09-30T01:31:18;4.93;;;2.80;;
20609;SDS011;10463;52.378;9.688;2023-09-30T01:34:03;5.00;;;2.80;;
20609;SDS011;10463;52.378;9.688;2023-09-30T01:36:48;6.43;;;3.00;;
20609;SDS011;10463;52.378;9.688;2023-09-30T01:39:35;4.67;;;2.83;;
20609;SDS011;10463;52.378;9.688;2023-09-30T01:42:20;6.33;;;3.47;;
20609;SDS011;10463;52.378;9.688;2023-09-30T01:45:06;3.87;;;2.20;;
20609;SDS011;10463;52.378;9.688;2023-09-30T01:47:51;5.63;;;2.70;;
20609;SDS011;10463;52.378;9.688;2023-09-30T01:50:37;4.63;;;2.73;;
20609;SDS011;10463;52.378;9.688;2023-09-30T01:53:22;4.43;;;2.40;;
20609;SDS011;10463;52.378;9.688;2023-09-30T01:56:07;5.43;;;2.80;;
20609;SDS011;10463;52.378;9.688;2023-09-30T01:58:52;4.70;;;2.30;;
20609;SDS011;10463;52.378;9.688;2023-09-30T02:01:37;5.43;;;2.80;;
20609;SDS011;10463;52.378;9.688;2023-09-30T02:04:21;6.03;;;3.03;;
20609;SDS011;10463;52.378;9.688;2023-09-30T02:07:07;5.07;;;3.00;;
20609;SDS011;10463;52.378;9.688;2023-09-30T02:13:03;4.90;;;2.63;;
20609;SDS011;10463;52.378;9.688;2023-09-30T02:15:49;4.57;;;2.60;;
20609;SDS011;10463;52.378;9.688;2023-09-30T02:18:34;6.20;;;3.07;;
20609;SDS011;10463;52.378;9.688;2023-09-30T02:21:19;3.93;;;2.43;;
20609;SDS011;10463;52.378;9.688;2023-09-30T02:24:06;4.40;;;2.70;;
20609;SDS011;10463;52.378;9.688;2023-09-30T02:26:51;5.23;;;3.00;;
20609;SDS011;10463;52.378;9.688;2023-09-30T02:29:38;3.60;;;2.00;;
20609;SDS011;10463;52.378;9.688;2023-09-30T02:32:22;4.43;;;2.60;;
20609;SDS011;10463;52.378;9.688;2023-09-30T02:35:08;5.40;;;2.63;;
20609;SDS011;10463;52.378;9.688;2023-09-30T02:37:57;7.27;;;2.57;;
20609;SDS011;10463;52.378;9.688;2023-09-30T02:40:44;5.40;;;2.60;;
20609;SDS011;10463;52.378;9.688;2023-09-30T02:43:30;4.73;;;2.40;;
20609;SDS011;10463;52.378;9.688;2023-09-30T02:46:17;3.47;;;2.40;;
20609;SDS011;10463;52.378;9.688;2023-09-30T02:49:03;4.10;;;2.67;;
20609;SDS011;10463;52.378;9.688;2023-09-30T02:51:48;4.50;;;2.30;;
20609;SDS011;10463;52.378;9.688;2023-09-30T02:54:34;6.03;;;2.50;;
20609;SDS011;10463;52.378;9.688;2023-09-30T02:57:19;4.40;;;2.20;;
20609;SDS011;10463;52.378;9.688;2023-09-30T03:00:04;3.07;;;2.03;;
20609;SDS011;10463;52.378;9.688;2023-09-30T03:03:09;4.50;;;2.83;;
20609;SDS011;10463;52.378;9.688;2023-09-30T03:05:53;5.30;;;2.57;;
20609;SDS011;10463;52.378;9.688;2023-09-30T03:08:38;4.23;;;2.70;;
20609;SDS011;10463;52.378;9.688;2023-09-30T03:13:58;4.87;;;2.50;;
20609;SDS011;10463;52.378;9.688;2023-09-30T03:16:43;3.23;;;2.20;;
20609;SDS011;10463;52.378;9.688;2023-09-30T03:19:30;5.67;;;2.80;;
20609;SDS011;10463;52.378;9.688;2023-09-30T03:22:14;4.10;;;2.50;;
20609;SDS011;10463;52.378;9.688;2023-09-30T03:24:59;5.20;;;2.60;;
20609;SDS011;10463;52.378;9.688;2023-09-30T03:27:44;4.10;;;2.30;;
20609;SDS011;10463;52.378;9.688;2023-09-30T03:30:35;4.20;;;2.10;;
20609;SDS011;10463;52.378;9.688;2023-09-30T03:33:20;4.93;;;2.47;;
20609;SDS011;10463;52.378;9.688;2023-09-30T03:36:08;6.53;;;2.80;;
20609;SDS011;10463;52.378;9.688;2023-09-30T03:38:53;5.03;;;2.10;;
20609;SDS011;10463;52.378;9.688;2023-09-30T03:41:43;3.37;;;2.20;;
20609;SDS011;10463;52.378;9.688;2023-09-30T03:44:28;5.30;;;2.60;;
20609;SDS011;10463;52.378;9.688;2023-09-30T03:47:13;6.20;;;3.03;;
20609;SDS011;10463;52.378;9.688;2023-09-30T03:52:48;7.70;;;2.87;;
20609;SDS011;10463;52.378;9.688;2023-09-30T03:55:33;4.73;;;2.57;;
20609;SDS011;10463;52.378;9.688;2023-09-30T03:58:18;4.37;;;2.90;;
20609;SDS011;10463;52.378;9.688;2023-09-30T04:01:03;4.63;;;2.43;;
20609;SDS011;10463;52.378;9.688;2023-09-30T04:03:48;5.97;;;2.47;;
20609;SDS011;10463;52.378;9.688;2023-09-30T04:06:33;5.40;;;2.70;;
20609;SDS011;10463;52.378;9.688;2023-09-30T04:09:19;4.23;;;2.60;;
20609;SDS011;10463;52.378;9.688;2023-09-30T04:12:04;5.20;;;2.27;;
20609;SDS011;10463;52.378;9.688;2023-09-30T04:14:50;3.83;;;2.50;;
20609;SDS011;10463;52.378;9.688;2023-09-30T04:17:35;5.17;;;2.63;;
20609;SDS011;10463;52.378;9.688;2023-09-30T04:20:21;5.60;;;2.90;;
20609;SDS011;10463;52.378;9.688;2023-09-30T04:23:07;3.90;;;2.70;;
20609;SDS011;10463;52.378;9.688;2023-09-30T04:25:55;4.70;;;2.60;;
20609;SDS011;10463;52.378;9.688;2023-09-30T04:28:39;5.30;;;2.67;;
20609;SDS011;10463;52.378;9.688;2023-09-30T04:31:24;5.17;;;2.87;;
20609;SDS011;10463;52.378;9.688;2023-09-30T04:34:08;6.43;;;2.50;;
20609;SDS011;10463;52.378;9.688;2023-09-30T04:36:53;4.40;;;2.53;;
20609;SDS011;10463;52.378;9.688;2023-09-30T04:39:37;4.13;;;2.67;;
20609;SDS011;10463;52.378;9.688;2023-09-30T04:42:23;3.97;;;2.40;;
20609;SDS011;10463;52.378;9.688;2023-09-30T04:45:10;4.33;;;2.63;;
20609;SDS011;10463;52.378;9.688;2023-09-30T04:47:56;5.37;;;3.17;;
20609;SDS011;10463;52.378;9.688;2023-09-30T04:50:40;4.80;;;2.30;;
20609;SDS011;10463;52.378;9.688;2023-09-30T04:53:25;4.40;;;2.30;;
20609;SDS011;10463;52.378;9.688;2023-09-30T04:56:10;4.77;;;2.37;;
20609;SDS011;10463;52.378;9.688;2023-09-30T04:58:56;5.00;;;2.30;;
20609;SDS011;10463;52.378;9.688;2023-09-30T05:01:42;5.60;;;2.10;;
20609;SDS011;10463;52.378;9.688;2023-09-30T05:04:27;4.00;;;2.30;;
20609;SDS011;10463;52.378;9.688;2023-09-30T05:07:14;6.67;;;3.00;;
20609;SDS011;10463;52.378;9.688;2023-09-30T05:09:58;3.60;;;2.00;;
20609;SDS011;10463;52.378;9.688;2023-09-30T05:12:49;4.47;;;2.40;;
20609;SDS011;10463;52.378;9.688;2023-09-30T05:15:39;5.60;;;2.70;;
20609;SDS011;10463;52.378;9.688;2023-09-30T05:18:26;5.37;;;3.10;;
20609;SDS011;10463;52.378;9.688;2023-09-30T05:21:10;5.33;;;3.17;;
20609;SDS011;10463;52.378;9.688;2023-09-30T05:23:55;5.37;;;3.10;;
20609;SDS011;10463;52.378;9.688;2023-09-30T05:26:40;6.67;;;3.33;;
20609;SDS011;10463;52.378;9.688;2023-09-30T05:29:24;5.33;;;3.47;;
20609;SDS011;10463;52.378;9.688;2023-09-30T05:32:10;5.20;;;3.33;;
20609;SDS011;10463;52.378;9.688;2023-09-30T05:34:55;6.30;;;3.80;;
20609;SDS011;10463;52.378;9.688;2023-09-30T05:37:40;6.67;;;3.97;;
20609;SDS011;10463;52.378;9.688;2023-09-30T05:40:25;7.83;;;3.70;;
20609;SDS011;10463;52.378;9.688;2023-09-30T05:43:10;6.27;;;3.60;;
20609;SDS011;10463;52.378;9.688;2023-09-30T05:45:57;5.87;;;3.67;;
20609;SDS011;10463;52.378;9.688;2023-09-30T05:48:44;6.10;;;3.90;;
20609;SDS011;10463;52.378;9.688;2023-09-30T05:51:28;5.53;;;3.40;;
20609;SDS011;10463;52.378;9.688;2023-09-30T05:54:13;6.10;;;3.70;;
20609;SDS011;10463;52.378;9.688;2023-09-30T05:56:57;5.90;;;3.50;;
20609;SDS011;10463;52.378;9.688;2023-09-30T05:59:44;5.53;;;3.57;;
20609;SDS011;10463;52.378;9.688;2023-09-30T06:02:30;5.13;;;3.20;;
20609;SDS011;10463;52.378;9.688;2023-09-30T06:05:16;5.03;;;3.00;;
20609;SDS011;10463;52.378;9.688;2023-09-30T06:08:03;4.37;;;3.13;;
20609;SDS011;10463;52.378;9.688;2023-09-30T06:13:45;6.30;;;3.43;;
20609;SDS011;10463;52.378;9.688;2023-09-30T06:16:30;4.10;;;2.70;;
20609;SDS011;10463;52.378;9.688;2023-09-30T06:19:15;5.87;;;3.13;;
20609;SDS011;10463;52.378;9.688;2023-09-30T06:22:01;6.30;;;3.20;;
20609;SDS011;10463;52.378;9.688;2023-09-30T06:24:47;4.03;;;2.70;;
20609;SDS011;10463;52.378;9.688;2023-09-30T06:27:32;6.17;;;2.87;;
20609;SDS011;10463;52.378;9.688;2023-09-30T06:30:17;4.83;;;2.93;;
20609;SDS011;10463;52.378;9.688;2023-09-30T06:33:04;5.60;;;3.37;;
20609;SDS011;10463;52.378;9.688;2023-09-30T06:35:50;5.97;;;2.70;;
20609;SDS011;10463;52.378;9.688;2023-09-30T06:38:36;5.00;;;2.93;;
20609;SDS011;10463;52.378;9.688;2023-09-30T06:41:21;5.40;;;3.00;;
20609;SDS011;10463;52.378;9.688;2023-09-30T06:44:06;5.07;;;2.70;;
20609;SDS011;10463;52.378;9.688;2023-09-30T06:46:51;5.57;;;2.63;;
20609;SDS011;10463;52.378;9.688;2023-09-30T06:49:35;4.93;;;3.00;;
20609;SDS011;10463;52.378;9.688;2023-09-30T06:52:20;5.43;;;2.67;;
20609;SDS011;10463;52.378;9.688;2023-09-30T06:55:07;5.67;;;3.40;;
20609;SDS011;10463;52.378;9.688;2023-09-30T06:57:52;4.57;;;2.80;;
20609;SDS011;10463;52.378;9.688;2023-09-30T07:00:37;4.37;;;3.00;;
20609;SDS011;10463;52.378;9.688;2023-09-30T07:03:22;4.23;;;2.63;;
20609;SDS011;10463;52.378;9.688;2023-09-30T07:06:06;3.90;;;2.47;;
20609;SDS011;10463;52.378;9.688;2023-09-30T07:08:51;5.80;;;2.90;;
20609;SDS011;10463;52.378;9.688;2023-09-30T07:11:37;6.07;;;2.93;;
20609;SDS011;10463;52.378;9.688;2023-09-30T07:14:22;4.17;;;2.97;;
20609;SDS011;10463;52.378;9.688;2023-09-30T07:17:06;5.50;;;2.87;;
20609;SDS011;10463;52.378;9.688;2023-09-30T07:19:51;4.20;;;2.57;;
20609;SDS011;10463;52.378;9.688;2023-09-30T07:22:36;3.10;;;2.23;;
20609;SDS011;10463;52.378;9.688;2023-09-30T07:25:21;4.13;;;2.07;;
20609;SDS011;10463;52.378;9.688;2023-09-30T07:28:07;4.70;;;2.80;;
20609;SDS011;10463;52.378;9.688;2023-09-30T07:30:55;4.10;;;2.87;;
20609;SDS011;10463;52.378;9.688;2023-09-30T07:33:40;4.07;;;2.30;;
20609;SDS011;10463;52.378;9.688;2023-09-30T07:36:25;3.77;;;2.63;;
20609;SDS011;10463;52.378;9.688;2023-09-30T07:39:09;4.50;;;2.60;;
20609;SDS011;10463;52.378;9.688;2023-09-30T07:41:54;6.00;;;2.90;;
20609;SDS011;10463;52.378;9.688;2023-09-30T07:44:40;4.33;;;2.27;;
20609;SDS011;10463;52.378;9.688;2023-09-30T07:47:25;5.77;;;2.70;;
20609;SDS011;10463;52.378;9.688;2023-09-30T07:50:10;4.10;;;2.83;;
20609;SDS011;10463;52.378;9.688;2023-09-30T07:52:56;4.17;;;2.40;;
20609;SDS011;10463;52.378;9.688;2023-09-30T07:55:42;5.20;;;2.73;;
20609;SDS011;10463;52.378;9.688;2023-09-30T07:58:27;5.30;;;2.90;;
20609;SDS011;10463;52.378;9.688;2023-09-30T08:01:13;4.27;;;2.30;;
20609;SDS011;10463;52.378;9.688;2023-09-30T08:03:58;3.67;;;2.13;;
20609;SDS011;10463;52.378;9.688;2023-09-30T08:06:43;2.60;;;1.77;;
20609;SDS011;10463;52.378;9.688;2023-09-30T08:09:28;4.60;;;2.80;;
20609;SDS011;10463;52.378;9.688;2023-09-30T08:12:12;3.60;;;2.30;;
20609;SDS011;10463;52.378;9.688;2023-09-30T08:14:57;6.43;;;2.60;;
20609;SDS011;10463;52.378;9.688;2023-09-30T08:17:44;3.47;;;2.40;;
20609;SDS011;10463;52.378;9.688;2023-09-30T08:20:29;3.63;;;2.20;;
20609;SDS011;10463;52.378;9.688;2023-09-30T08:23:14;4.67;;;2.50;;
20609;SDS011;10463;52.378;9.688;2023-09-30T08:25:58;6.00;;;2.57;;
20609;SDS011;10463;52.378;9.688;2023-09-30T08:28:43;3.87;;;2.20;;
20609;SDS011;10463;52.378;9.688;2023-09-30T08:31:28;5.00;;;2.50;;
20609;SDS011;10463;52.378;9.688;2023-09-30T08:34:14;4.90;;;2.37;;
20609;SDS011;10463;52.378;9.688;2023-09-30T08:36:58;3.77;;;2.27;;
20609;SDS011;10463;52.378;9.688;2023-09-30T08:39:43;4.67;;;2.60;;
20609;SDS011;10463;52.378;9.688;2023-09-30T08:42:27;5.73;;;2.93;;
20609;SDS011;10463;52.378;9.688;2023-09-30T08:45:16;4.77;;;2.27;;
20609;SDS011;10463;52.378;9.688;2023-09-30T08:48:01;3.87;;;2.13;;
20609;SDS011;10463;52.378;9.688;2023-09-30T08:50:50;4.33;;;2.57;;
20609;SDS011;10463;52.378;9.688;2023-09-30T08:53:36;3.60;;;2.30;;
20609;SDS011;10463;52.378;9.688;2023-09-30T08:56:24;3.30;;;1.87;;
20609;SDS011;10463;52.378;9.688;2023-09-30T08:59:11;3.07;;;2.27;;
20609;SDS011;10463;52.378;9.688;2023-09-30T09:01:56;4.03;;;2.10;;
20609;SDS011;10463;52.378;9.688;2023-09-30T09:04:42;4.37;;;2.80;;
20609;SDS011;10463;52.378;9.688;2023-09-30T09:07:28;3.93;;;2.50;;
20609;SDS011;10463;52.378;9.688;2023-09-30T09:10:14;4.27;;;2.23;;
20609;SDS011;10463;52.378;9.688;2023-09-30T09:12:59;5.23;;;2.80;;
20609;SDS011;10463;52.378;9.688;2023-09-30T09:15:43;5.10;;;2.27;;
20609;SDS011;10463;52.378;9.688;2023-09-30T09:18:31;4.67;;;2.93;;
20609;SDS011;10463;52.378;9.688;2023-09-30T09:21:23;4.70;;;2.43;;
20609;SDS011;10463;52.378;9.688;2023-09-30T09:24:11;4.23;;;2.37;;
20609;SDS011;10463;52.378;9.688;2023-09-30T09:27:11;2.60;;;1.93;;
20609;SDS011;10463;52.378;9.688;2023-09-30T09:30:14;4.97;;;2.40;;
20609;SDS011;10463;52.378;9.688;2023-09-30T09:33:01;4.50;;;2.53;;
20609;SDS011;10463;52.378;9.688;2023-09-30T09:35:48;3.50;;;2.10;;
20609;SDS011;10463;52.378;9.688;2023-09-30T09:38:43;4.37;;;2.43;;
20609;SDS011;10463;52.378;9.688;2023-09-30T09:41:30;3.10;;;2.00;;
20609;SDS011;10463;52.378;9.688;2023-09-30T09:44:14;5.23;;;2.67;;
20609;SDS011;10463;52.378;9.688;2023-09-30T09:47:00;3.77;;;2.17;;
20609;SDS011;10463;52.378;9.688;2023-09-30T09:49:49;2.60;;;2.00;;
20609;SDS011;10463;52.378;9.688;2023-09-30T09:52:35;3.20;;;2.03;;
20609;SDS011;10463;52.378;9.688;2023-09-30T09:55:24;3.93;;;2.33;;
20609;SDS011;10463;52.378;9.688;2023-09-30T09:58:11;4.50;;;2.50;;
20609;SDS011;10463;52.378;9.688;2023-09-30T10:00:58;3.77;;;2.70;;
20609;SDS011;10463;52.378;9.688;2023-09-30T10:03:44;5.70;;;2.43;;
20609;SDS011;10463;52.378;9.688;2023-09-30T10:06:29;3.87;;;2.60;;
20609;SDS011;10463;52.378;9.688;2023-09-30T10:09:13;3.27;;;2.10;;
20609;SDS011;10463;52.378;9.688;2023-09-30T10:11:59;4.23;;;2.03;;
20609;SDS011;10463;52.378;9.688;2023-09-30T10:14:47;2.90;;;1.83;;
20609;SDS011;10463;52.378;9.688;2023-09-30T10:17:58;4.30;;;1.87;;
20609;SDS011;10463;52.378;9.688;2023-09-30T10:20:44;4.47;;;2.50;;
20609;SDS011;10463;52.378;9.688;2023-09-30T10:23:31;3.00;;;2.00;;
20609;SDS011;10463;52.378;9.688;2023-09-30T10:26:17;4.87;;;1.97;;
20609;SDS011;10463;52.378;9.688;2023-09-30T10:29:08;4.00;;;1.90;;
20609;SDS011;10463;52.378;9.688;2023-09-30T10:31:55;3.13;;;2.10;;
20609;SDS011;10463;52.378;9.688;2023-09-30T10:34:39;3.80;;;2.03;;
20609;SDS011;10463;52.378;9.688;2023-09-30T10:37:31;3.40;;;2.00;;
20609;SDS011;10463;52.378;9.688;2023-09-30T10:40:26;3.40;;;2.23;;
20609;SDS011;10463;52.378;9.688;2023-09-30T10:43:28;3.50;;;2.20;;
20609;SDS011;10463;52.378;9.688;2023-09-30T10:46:30;4.23;;;2.40;;
20609;SDS011;10463;52.378;9.688;2023-09-30T10:49:29;4.10;;;2.23;;
20609;SDS011;10463;52.378;9.688;2023-09-30T10:52:21;3.60;;;2.30;;
20609;SDS011;10463;52.378;9.688;2023-09-30T10:55:08;3.13;;;1.90;;
20609;SDS011;10463;52.378;9.688;2023-09-30T10:57:53;3.03;;;1.87;;
20609;SDS011;10463;52.378;9.688;2023-09-30T11:00:38;4.97;;;2.63;;
20609;SDS011;10463;52.378;9.688;2023-09-30T11:03:24;5.13;;;2.70;;
20609;SDS011;10463;52.378;9.688;2023-09-30T11:06:12;4.80;;;1.77;;
20609;SDS011;10463;52.378;9.688;2023-09-30T11:09:01;7.23;;;2.53;;
20609;SDS011;10463;52.378;9.688;2023-09-30T11:11:48;5.60;;;2.20;;
20609;SDS011;10463;52.378;9.688;2023-09-30T11:14:33;5.40;;;2.30;;
20609;SDS011;10463;52.378;9.688;2023-09-30T11:17:20;5.20;;;1.77;;
20609;SDS011;10463;52.378;9.688;2023-09-30T11:20:07;3.80;;;1.87;;
20609;SDS011;10463;52.378;9.688;2023-09-30T11:22:55;4.53;;;1.90;;
20609;SDS011;10463;52.378;9.688;2023-09-30T11:25:40;4.00;;;1.80;;
20609;SDS011;10463;52.378;9.688;2023-09-30T11:28:25;4.97;;;2.00;;
20609;SDS011;10463;52.378;9.688;2023-09-30T11:31:21;3.33;;;2.00;;
20609;SDS011;10463;52.378;9.688;2023-09-30T11:34:06;5.53;;;2.60;;
20609;SDS011;10463;52.378;9.688;2023-09-30T11:36:52;4.10;;;2.00;;
20609;SDS011;10463;52.378;9.688;2023-09-30T11:39:38;4.00;;;1.80;;
20609;SDS011;10463;52.378;9.688;2023-09-30T11:42:24;5.03;;;1.77;;
20609;SDS011;10463;52.378;9.688;2023-09-30T11:45:19;4.30;;;2.30;;
20609;SDS011;10463;52.378;9.688;2023-09-30T11:48:17;4.57;;;2.10;;
20609;SDS011;10463;52.378;9.688;2023-09-30T11:51:03;5.20;;;2.00;;
20609;SDS011;10463;52.378;9.688;2023-09-30T11:53:48;5.27;;;2.10;;
20609;SDS011;10463;52.378;9.688;2023-09-30T11:56:35;8.27;;;2.40;;
20609;SDS011;10463;52.378;9.688;2023-09-30T11:59:20;4.60;;;2.50;;
20609;SDS011;10463;52.378;9.688;2023-09-30T12:02:06;4.20;;;1.90;;
20609;SDS011;10463;52.378;9.688;2023-09-30T12:04:52;4.10;;;2.00;;
20609;SDS011;10463;52.378;9.688;2023-09-30T12:07:37;3.83;;;1.77;;
20609;SDS011;10463;52.378;9.688;2023-09-30T12:10:25;4.07;;;1.60;;
20609;SDS011;10463;52.378;9.688;2023-09-30T12:13:11;4.87;;;2.10;;
20609;SDS011;10463;52.378;9.688;2023-09-30T12:15:55;3.53;;;2.03;;
20609;SDS011;10463;52.378;9.688;2023-09-30T12:18:41;5.10;;;2.33;;
20609;SDS011;10463;52.378;9.688;2023-09-30T12:21:26;4.43;;;2.20;;
20609;SDS011;10463;52.378;9.688;2023-09-30T12:24:10;6.77;;;2.20;;
20609;SDS011;10463;52.378;9.688;2023-09-30T12:26:57;4.73;;;1.80;;
20609;SDS011;10463;52.378;9.688;2023-09-30T12:29:43;6.20;;;2.43;;
20609;SDS011;10463;52.378;9.688;2023-09-30T12:32:28;2.10;;;1.47;;
20609;SDS011;10463;52.378;9.688;2023-09-30T12:35:12;6.37;;;3.10;;
20609;SDS011;10463;52.378;9.688;2023-09-30T12:37:57;5.40;;;2.53;;
20609;SDS011;10463;52.378;9.688;2023-09-30T12:40:42;3.83;;;1.83;;
20609;SDS011;10463;52.378;9.688;2023-09-30T12:43:27;3.27;;;1.90;;
20609;SDS011;10463;52.378;9.688;2023-09-30T12:46:13;4.33;;;2.27;;
20609;SDS011;10463;52.378;9.688;2023-09-30T12:48:58;3.90;;;2.20;;
20609;SDS011;10463;52.378;9.688;2023-09-30T12:51:42;6.37;;;2.50;;
20609;SDS011;10463;52.378;9.688;2023-09-30T12:54:27;4.53;;;2.33;;
20609;SDS011;10463;52.378;9.688;2023-09-30T12:57:11;5.27;;;2.30;;
20609;SDS011;10463;52.378;9.688;2023-09-30T12:59:57;3.20;;;2.00;;
20609;SDS011;10463;52.378;9.688;2023-09-30T13:02:43;3.40;;;2.27;;
20609;SDS011;10463;52.378;9.688;2023-09-30T13:05:28;8.00;;;2.23;;
20609;SDS011;10463;52.378;9.688;2023-09-30T13:08:16;5.37;;;2.33;;
20609;SDS011;10463;52.378;9.688;2023-09-30T13:11:00;5.57;;;3.10;;
20609;SDS011;10463;52.378;9.688;2023-09-30T13:13:48;4.07;;;2.20;;
20609;SDS011;10463;52.378;9.688;2023-09-30T13:16:32;4.90;;;2.57;;
20609;SDS011;10463;52.378;9.688;2023-09-30T13:19:18;3.93;;;2.33;;
20609;SDS011;10463;52.378;9.688;2023-09-30T13:22:05;5.73;;;2.70;;
20609;SDS011;10463;52.378;9.688;2023-09-30T13:24:51;6.03;;;2.80;;
20609;SDS011;10463;52.378;9.688;2023-09-30T13:27:36;6.17;;;3.13;;
20609;SDS011;10463;52.378;9.688;2023-09-30T13:30:21;5.00;;;2.50;;
20609;SDS011;10463;52.378;9.688;2023-09-30T13:33:06;4.80;;;2.80;;
20609;SDS011;10463;52.378;9.688;2023-09-30T13:35:52;5.90;;;2.80;;
20609;SDS011;10463;52.378;9.688;2023-09-30T13:38:39;7.40;;;3.33;;
20609;SDS011;10463;52.378;9.688;2023-09-30T13:41:23;4.93;;;2.60;;
20609;SDS011;10463;52.378;9.688;2023-09-30T13:44:08;5.77;;;2.90;;
20609;SDS011;10463;52.378;9.688;2023-09-30T13:46:53;4.87;;;2.50;;
20609;SDS011;10463;52.378;9.688;2023-09-30T13:49:37;4.93;;;2.50;;
20609;SDS011;10463;52.378;9.688;2023-09-30T13:52:23;3.90;;;2.60;;
20609;SDS011;10463;52.378;9.688;2023-09-30T13:55:08;5.33;;;2.70;;
20609;SDS011;10463;52.378;9.688;2023-09-30T13:57:53;4.67;;;2.70;;
20609;SDS011;10463;52.378;9.688;2023-09-30T14:00:37;3.40;;;2.07;;
20609;SDS011;10463;52.378;9.688;2023-09-30T14:03:22;3.97;;;2.40;;
20609;SDS011;10463;52.378;9.688;2023-09-30T14:06:11;7.50;;;3.47;;
20609;SDS011;10463;52.378;9.688;2023-09-30T14:08:57;4.20;;;2.00;;
20609;SDS011;10463;52.378;9.688;2023-09-30T14:11:42;3.33;;;2.20;;
20609;SDS011;10463;52.378;9.688;2023-09-30T14:14:28;4.33;;;2.37;;
20609;SDS011;10463;52.378;9.688;2023-09-30T14:17:12;4.23;;;2.43;;
20609;SDS011;10463;52.378;9.688;2023-09-30T14:19:58;3.67;;;2.37;;
20609;SDS011;10463;52.378;9.688;2023-09-30T14:22:43;6.90;;;2.47;;
20609;SDS011;10463;52.378;9.688;2023-09-30T14:25:29;4.60;;;2.53;;
20609;SDS011;10463;52.378;9.688;2023-09-30T14:28:13;5.47;;;2.20;;
20609;SDS011;10463;52.378;9.688;2023-09-30T14:30:58;5.30;;;2.90;;
20609;SDS011;10463;52.378;9.688;2023-09-30T14:33:46;4.43;;;2.30;;
20609;SDS011;10463;52.378;9.688;2023-09-30T14:36:31;5.57;;;2.60;;
20609;SDS011;10463;52.378;9.688;2023-09-30T14:39:17;3.70;;;1.90;;
20609;SDS011;10463;52.378;9.688;2023-09-30T14:42:02;6.73;;;2.57;;
20609;SDS011;10463;52.378;9.688;2023-09-30T14:44:47;6.50;;;3.07;;
20609;SDS011;10463;52.378;9.688;2023-09-30T14:47:31;5.87;;;3.03;;
20609;SDS011;10463;52.378;9.688;2023-09-30T14:50:17;6.30;;;2.80;;
20609;SDS011;10463;52.378;9.688;2023-09-30T14:53:02;5.17;;;2.90;;
20609;SDS011;10463;52.378;9.688;2023-09-30T14:55:47;6.00;;;2.80;;
20609;SDS011;10463;52.378;9.688;2023-09-30T14:58:32;6.30;;;2.70;;
20609;SDS011;10463;52.378;9.688;2023-09-30T15:01:17;4.80;;;2.47;;
20609;SDS011;10463;52.378;9.688;2023-09-30T15:04:04;6.13;;;2.70;;
20609;SDS011;10463;52.378;9.688;2023-09-30T15:06:51;6.37;;;3.10;;
20609;SDS011;10463;52.378;9.688;2023-09-30T15:09:35;4.30;;;2.40;;
20609;SDS011;10463;52.378;9.688;2023-09-30T15:12:20;4.10;;;3.00;;
20609;SDS011;10463;52.378;9.688;2023-09-30T15:15:07;5.87;;;2.53;;
20609;SDS011;10463;52.378;9.688;2023-09-30T15:17:53;5.00;;;2.70;;
20609;SDS011;10463;52.378;9.688;2023-09-30T15:20:38;5.43;;;2.83;;
20609;SDS011;10463;52.378;9.688;2023-09-30T15:23:24;6.20;;;2.97;;
20609;SDS011;10463;52.378;9.688;2023-09-30T15:26:09;6.37;;;2.63;;
20609;SDS011;10463;52.378;9.688;2023-09-30T15:28:54;6.00;;;3.43;;
20609;SDS011;10463;52.378;9.688;2023-09-30T15:31:40;5.70;;;3.90;;
20609;SDS011;10463;52.378;9.688;2023-09-30T15:34:24;7.03;;;4.60;;
20609;SDS011;10463;52.378;9.688;2023-09-30T15:37:09;5.97;;;3.40;;
20609;SDS011;10463;52.378;9.688;2023-09-30T15:39:53;6.80;;;3.57;;
20609;SDS011;10463;52.378;9.688;2023-09-30T15:42:38;5.73;;;3.50;;
20609;SDS011;10463;52.378;9.688;2023-09-30T15:45:25;7.33;;;3.93;;
20609;SDS011;10463;52.378;9.688;2023-09-30T15:48:12;5.93;;;3.37;;
20609;SDS011;10463;52.378;9.688;2023-09-30T15:50:57;7.43;;;3.80;;
20609;SDS011;10463;52.378;9.688;2023-09-30T15:53:42;5.47;;;3.00;;
20609;SDS011;10463;52.378;9.688;2023-09-30T15:56:26;6.57;;;2.70;;
20609;SDS011;10463;52.378;9.688;2023-09-30T15:59:11;6.00;;;3.20;;
20609;SDS011;10463;52.378;9.688;2023-09-30T16:01:55;6.13;;;2.80;;
20609;SDS011;10463;52.378;9.688;2023-09-30T16:04:41;5.70;;;3.03;;
20609;SDS011;10463;52.378;9.688;2023-09-30T16:07:26;6.03;;;2.77;;
20609;SDS011;10463;52.378;9.688;2023-09-30T16:10:10;4.00;;;2.60;;
20609;SDS011;10463;52.378;9.688;2023-09-30T16:12:55;4.40;;;2.90;;
20609;SDS011;10463;52.378;9.688;2023-09-30T16:15:41;7.03;;;3.60;;
20609;SDS011;10463;52.378;9.688;2023-09-30T16:18:26;5.53;;;2.90;;
20609;SDS011;10463;52.378;9.688;2023-09-30T16:21:13;5.50;;;2.90;;
20609;SDS011;10463;52.378;9.688;2023-09-30T16:23:59;4.10;;;3.00;;
20609;SDS011;10463;52.378;9.688;2023-09-30T16:26:43;4.87;;;3.00;;
20609;SDS011;10463;52.378;9.688;2023-09-30T16:29:28;4.33;;;2.80;;
20609;SDS011;10463;52.378;9.688;2023-09-30T16:32:12;4.27;;;2.60;;
20609;SDS011;10463;52.378;9.688;2023-09-30T16:34:57;3.53;;;2.20;;
20609;SDS011;10463;52.378;9.688;2023-09-30T16:37:43;4.13;;;3.10;;
20609;SDS011;10463;52.378;9.688;2023-09-30T16:40:28;4.37;;;3.00;;
20609;SDS011;10463;52.378;9.688;2023-09-30T16:43:13;4.53;;;3.20;;
20609;SDS011;10463;52.378;9.688;2023-09-30T16:46:01;4.47;;;3.30;;
20609;SDS011;10463;52.378;9.688;2023-09-30T16:48:46;4.23;;;3.07;;
20609;SDS011;10463;52.378;9.688;2023-09-30T16:51:31;4.53;;;2.83;;